Portada
METAR-TAF:

METAR-TAF

Aeroports :

Ingalls Field

Hot Springs, Virgínia, Estats Units d'Amèrica

latitud: 37-57N, longitud: 079-50W, altitud: 1156 m

Observació

L'informe es va fer fa 31 minuts, a les 00:15 UTC
Vent 3 kt del Sud/Sud-Est
Temperatura 22°C
Humitat 88%
Pressió 1024 hPa
Visibilitat: 1.6 km
Cel cobert a una alçada de 100 ft
boirina

METAR: KHSP 080015Z AUTO 16003KT 1SM BR OVC001 22/20 A3024 RMK AO2 VIS 1/2V4 LTG DSNT NE THRU S T02200203

Hora: 20:46 (00:46 UTC)


TAF: manca

Observacions i pronòstics meteorològics de més de 4000 aeroports (METAR i TAF).

Les estacions disponibles són els punts grocs i vermells al mapa.

Posi el ratolí al punt desitjat per veure el nom de l'estació.

Feu clic per veure les observacions i els pronòstics meteorològics.

Per canviar el mapa: feu clic els botons verds amb una creu de color negre per apropar; al botó verd amb un guió per allunyar la imatge; o en les fletxes verdes per a mapes adjacents.


METAR-TAF: